Time;durP1;ratioP1;P1;durP2;ratioP2;P2;SDS_P1;SDS_P2;PMS_P1;PMS_P2;Temp;Humidity;BMP_temperature;BMP_pressure;BME280_temperature;BME280_humidity;BME280_pressure;Samples;Min_cycle;Max_cycle;Signal;HPM_P1;HPM_P2
2023/09/12 00:00:13;;;;;;;14.07;9.27;;;23.80;78.90;;;;;;4975125;28;20451;-86
2023/09/12 00:02:41;;;;;;;8.90;8.10;;;23.80;78.30;;;;;;4974908;28;20452;-84
2023/09/12 00:05:09;;;;;;;8.40;7.60;;;23.70;78.50;;;;;;4974467;28;20483;-83
2023/09/12 00:07:40;;;;;;;9.20;8.30;;;23.60;78.80;;;;;;4974581;28;20464;-84
2023/09/12 00:10:08;;;;;;;8.03;7.23;;;23.60;78.90;;;;;;4970368;28;20495;-83
2023/09/12 00:12:38;;;;;;;9.10;8.23;;;23.50;79.30;;;;;;4972910;28;20478;-83
2023/09/12 00:15:07;;;;;;;12.13;8.57;;;23.60;79.30;;;;;;4974995;28;20498;-85
2023/09/12 00:17:35;;;;;;;9.10;8.30;;;23.60;78.70;;;;;;4956088;28;20472;-84
2023/09/12 00:20:06;;;;;;;7.97;7.23;;;23.60;78.80;;;;;;4973400;28;20480;-84
2023/09/12 00:22:34;;;;;;;9.40;8.47;;;23.50;78.70;;;;;;4973857;28;20518;-84
2023/09/12 00:25:03;;;;;;;9.53;8.73;;;23.60;78.60;;;;;;4972306;28;20571;-84
2023/09/12 00:27:31;;;;;;;8.07;7.33;;;23.60;78.50;;;;;;4966630;28;20456;-83
2023/09/12 00:30:01;;;;;;;8.77;7.97;;;23.60;78.30;;;;;;4956894;28;20469;-84
2023/09/12 00:32:29;;;;;;;10.90;9.03;;;23.60;78.80;;;;;;4974029;28;20486;-83
2023/09/12 00:34:57;;;;;;;9.47;8.63;;;23.70;78.60;;;;;;4954513;28;20470;-85
2023/09/12 00:37:26;;;;;;;11.07;9.77;;;23.70;78.40;;;;;;4973303;28;20465;-85
2023/09/12 00:39:54;;;;;;;10.00;8.23;;;23.60;78.20;;;;;;4972880;28;20468;-83
2023/09/12 00:42:22;;;;;;;8.60;7.60;;;23.60;78.20;;;;;;4973223;28;20455;-84
2023/09/12 00:44:50;;;;;;;10.03;9.03;;;23.50;78.40;;;;;;4974582;28;20483;-84
2023/09/12 00:47:21;;;;;;;8.30;7.50;;;23.40;78.70;;;;;;4973748;28;20452;-83
2023/09/12 00:49:51;;;;;;;10.23;8.50;;;23.40;79.00;;;;;;4974329;28;20459;-84
2023/09/12 00:52:25;;;;;;;8.87;8.07;;;23.40;78.70;;;;;;4973798;28;20534;-84
2023/09/12 00:54:54;;;;;;;7.60;6.90;;;23.30;79.20;;;;;;4972352;28;20467;-84
2023/09/12 00:57:23;;;;;;;8.47;7.70;;;23.20;79.30;;;;;;4969792;28;20950;-84
2023/09/12 00:59:52;;;;;;;11.20;8.53;;;23.10;79.10;;;;;;4954899;28;20469;-84
2023/09/12 01:02:22;;;;;;;8.30;7.40;;;23.10;78.80;;;;;;4956335;28;20466;-83
2023/09/12 01:04:52;;;;;;;8.17;7.40;;;23.10;79.10;;;;;;4972663;28;20498;-84
2023/09/12 01:07:20;;;;;;;9.00;8.20;;;23.10;80.10;;;;;;4954747;28;20962;-83
2023/09/12 01:09:49;;;;;;;10.13;9.07;;;23.10;79.90;;;;;;4973134;28;20534;-83
2023/09/12 01:12:17;;;;;;;9.57;8.67;;;23.00;80.30;;;;;;4969822;28;20452;-85
2023/09/12 01:14:46;;;;;;;9.63;8.30;;;23.00;80.00;;;;;;4955767;28;20502;-84
2023/09/12 01:17:14;;;;;;;10.03;8.70;;;23.00;80.10;;;;;;4972738;28;20947;-85
2023/09/12 01:19:43;;;;;;;10.23;8.87;;;23.00;79.80;;;;;;4956758;28;20595;-84
2023/09/12 01:22:41;;;;;;;11.17;9.20;;;23.10;79.70;;;;;;4971047;28;20443;-84
2023/09/12 01:25:28;;;;;;;10.50;8.23;;;23.10;78.90;;;;;;4971567;28;20535;-83
2023/09/12 01:28:00;;;;;;;8.90;8.10;;;23.00;79.10;;;;;;4954458;28;20468;-84
2023/09/12 01:30:32;;;;;;;10.10;9.20;;;22.90;79.30;;;;;;4972894;28;20978;-84
2023/09/12 01:33:01;;;;;;;10.93;9.87;;;22.90;79.80;;;;;;4973841;28;20551;-84
2023/09/12 01:35:30;;;;;;;8.87;8.10;;;22.90;79.40;;;;;;4972662;28;20470;-84
2023/09/12 01:37:58;;;;;;;8.80;8.00;;;23.10;79.60;;;;;;4973063;28;20519;-83
2023/09/12 01:40:34;;;;;;;8.83;8.10;;;23.10;79.20;;;;;;4953339;28;20464;-84
2023/09/12 01:43:06;;;;;;;9.30;8.40;;;23.10;79.80;;;;;;4955001;28;20459;-84
2023/09/12 01:45:35;;;;;;;9.50;8.50;;;23.20;79.20;;;;;;4970665;28;20979;-84
2023/09/12 01:48:06;;;;;;;10.43;9.40;;;23.20;79.40;;;;;;4972922;28;20481;-84
2023/09/12 01:50:35;;;;;;;8.70;7.90;;;23.10;79.00;;;;;;4954286;28;20455;-84
2023/09/12 01:53:05;;;;;;;10.00;9.10;;;23.00;78.90;;;;;;4968342;28;20464;-85
2023/09/12 01:55:34;;;;;;;10.10;8.47;;;22.90;79.70;;;;;;4972791;28;21332;-84
2023/09/12 01:58:04;;;;;;;14.03;10.13;;;22.90;79.20;;;;;;4971878;28;20497;-83
2023/09/12 02:00:35;;;;;;;9.00;8.10;;;22.90;79.50;;;;;;4952217;28;21362;-84
2023/09/12 02:03:04;;;;;;;8.50;7.70;;;22.90;79.80;;;;;;4972577;28;20488;-85
2023/09/12 02:05:33;;;;;;;9.47;8.50;;;22.90;79.20;;;;;;4971226;28;20478;-84
2023/09/12 02:08:01;;;;;;;10.77;8.50;;;22.90;78.70;;;;;;4971644;28;20463;-85
2023/09/12 02:10:29;;;;;;;9.57;8.57;;;22.90;79.70;;;;;;4957641;28;21028;-83
2023/09/12 02:12:57;;;;;;;9.77;8.80;;;22.80;79.30;;;;;;4971295;28;20527;-83
2023/09/12 02:15:27;;;;;;;8.53;7.73;;;22.90;78.90;;;;;;4953199;28;20466;-84
2023/09/12 02:17:55;;;;;;;10.50;9.50;;;22.80;79.40;;;;;;4951741;28;20469;-84
2023/09/12 02:20:24;;;;;;;9.43;7.47;;;22.80;78.90;;;;;;4953163;28;20492;-84
2023/09/12 02:22:52;;;;;;;10.27;8.87;;;22.80;79.40;;;;;;4942953;29;20468;-84
2023/09/12 02:25:20;;;;;;;8.50;7.80;;;22.80;79.30;;;;;;4963723;28;20482;-83
2023/09/12 02:27:48;;;;;;;8.00;7.30;;;22.80;79.80;;;;;;4971795;28;20460;-83
2023/09/12 02:30:16;;;;;;;9.10;8.30;;;22.80;79.60;;;;;;4955043;28;20465;-83
2023/09/12 02:32:46;;;;;;;9.43;7.87;;;22.90;79.70;;;;;;4972146;28;20904;-83
2023/09/12 02:35:14;;;;;;;10.97;8.67;;;22.90;79.70;;;;;;4954486;28;21016;-84
2023/09/12 02:37:43;;;;;;;9.33;8.33;;;23.00;79.00;;;;;;4949991;28;20549;-84
2023/09/12 02:40:14;;;;;;;9.10;8.30;;;22.90;79.00;;;;;;4971509;28;20476;-83
2023/09/12 02:42:42;;;;;;;9.47;8.63;;;23.00;79.60;;;;;;4961488;28;20475;-84
2023/09/12 02:45:11;;;;;;;9.10;8.20;;;23.10;79.30;;;;;;4971193;28;20479;-84
2023/09/12 02:47:39;;;;;;;10.07;8.70;;;23.10;79.50;;;;;;4954282;28;20471;-83
2023/09/12 02:50:10;;;;;;;11.33;8.70;;;23.10;79.10;;;;;;4953482;28;20473;-84
2023/09/12 02:52:38;;;;;;;10.23;9.13;;;23.00;78.90;;;;;;4951716;28;20466;-83
2023/09/12 02:55:08;;;;;;;10.80;9.30;;;22.90;79.30;;;;;;4951429;28;20472;-84
2023/09/12 02:57:36;;;;;;;10.87;9.87;;;23.00;80.00;;;;;;4953237;28;20547;-83
2023/09/12 03:00:08;;;;;;;11.67;9.77;;;22.90;79.60;;;;;;4955030;28;20997;-83
2023/09/12 03:02:36;;;;;;;11.07;9.13;;;22.90;79.20;;;;;;4953471;28;20512;-83
2023/09/12 03:05:05;;;;;;;10.53;9.47;;;22.90;79.20;;;;;;4951677;28;20565;-84
2023/09/12 03:07:34;;;;;;;9.90;9.00;;;22.80;79.10;;;;;;4972167;28;20463;-85
2023/09/12 03:10:04;;;;;;;8.33;7.30;;;22.70;79.60;;;;;;4969987;28;20462;-84
2023/09/12 03:12:33;;;;;;;8.90;8.00;;;22.60;80.50;;;;;;4961280;28;20469;-85
2023/09/12 03:15:02;;;;;;;8.83;8.10;;;22.70;80.30;;;;;;4954915;28;20902;-84
2023/09/12 03:17:30;;;;;;;9.87;9.00;;;22.70;79.90;;;;;;4953883;28;20981;-83
2023/09/12 03:20:00;;;;;;;9.07;8.17;;;22.70;80.10;;;;;;4971226;28;20870;-83
2023/09/12 03:22:28;;;;;;;9.23;8.43;;;22.60;80.30;;;;;;4970252;28;20566;-83
2023/09/12 03:24:57;;;;;;;10.77;9.57;;;22.60;80.20;;;;;;4973714;28;20524;-84
2023/09/12 03:27:25;;;;;;;11.53;9.40;;;22.60;80.10;;;;;;4956119;28;20481;-85
2023/09/12 03:29:55;;;;;;;11.43;10.40;;;22.60;80.60;;;;;;4975752;28;20464;-84
2023/09/12 03:32:23;;;;;;;9.53;8.60;;;22.70;79.90;;;;;;4957425;28;20502;-86
2023/09/12 03:34:52;;;;;;;10.07;9.10;;;22.60;80.30;;;;;;4973823;28;21053;-83
2023/09/12 03:37:21;;;;;;;10.60;9.27;;;22.70;80.00;;;;;;4946881;28;20465;-83
2023/09/12 03:39:49;;;;;;;10.70;9.80;;;22.80;79.50;;;;;;4944541;29;20469;-84
2023/09/12 03:42:19;;;;;;;10.07;9.07;;;22.80;79.50;;;;;;4944196;28;20480;-86
2023/09/12 03:44:47;;;;;;;11.10;10.00;;;22.60;80.00;;;;;;4930757;28;20468;-83
2023/09/12 03:47:16;;;;;;;10.07;9.07;;;22.60;80.20;;;;;;4957769;28;20458;-84
2023/09/12 03:49:44;;;;;;;9.40;8.40;;;22.50;81.00;;;;;;4975718;28;20482;-83
2023/09/12 03:52:12;;;;;;;9.27;8.47;;;22.60;80.40;;;;;;4955858;28;20830;-83
2023/09/12 03:54:41;;;;;;;9.83;9.03;;;22.60;80.30;;;;;;4974258;28;20468;-83
2023/09/12 03:57:09;;;;;;;11.30;10.17;;;22.50;80.50;;;;;;4952153;28;20476;-83
2023/09/12 03:59:39;;;;;;;9.47;8.53;;;22.60;80.50;;;;;;4966594;28;20459;-83
2023/09/12 04:02:07;;;;;;;9.00;8.30;;;22.60;79.90;;;;;;4952936;28;20464;-84
2023/09/12 04:04:35;;;;;;;10.77;9.87;;;22.50;80.20;;;;;;4956422;28;20498;-83
2023/09/12 04:07:04;;;;;;;10.50;9.50;;;22.50;80.40;;;;;;4955745;28;20490;-84
2023/09/12 04:09:34;;;;;;;13.53;11.70;;;22.40;80.70;;;;;;4954829;28;20964;-84
2023/09/12 04:12:02;;;;;;;11.37;10.17;;;22.30;79.10;;;;;;4975134;28;20460;-83
2023/09/12 04:14:30;;;;;;;12.07;10.97;;;22.20;79.50;;;;;;4973972;28;20467;-84
2023/09/12 04:17:00;;;;;;;13.03;11.83;;;22.20;79.10;;;;;;4971031;28;20833;-83
2023/09/12 04:19:28;;;;;;;13.37;12.00;;;21.80;79.60;;;;;;4951547;28;20470;-83
2023/09/12 04:21:57;;;;;;;11.90;10.80;;;21.60;80.30;;;;;;4972351;28;20462;-85
2023/09/12 04:24:25;;;;;;;11.00;9.80;;;21.50;81.40;;;;;;4952770;28;20471;-84
2023/09/12 04:26:54;;;;;;;10.80;9.70;;;21.50;82.20;;;;;;4961721;28;20492;-85
2023/09/12 04:29:23;;;;;;;13.90;10.33;;;21.60;81.60;;;;;;4954129;28;21109;-85
2023/09/12 04:31:56;;;;;;;10.97;9.97;;;21.70;82.20;;;;;;4952606;28;20482;-84
2023/09/12 04:34:25;;;;;;;12.63;11.40;;;21.80;81.70;;;;;;4952906;28;20467;-85
2023/09/12 04:36:54;;;;;;;10.10;9.10;;;21.90;81.60;;;;;;4964102;28;20462;-85
2023/09/12 04:39:23;;;;;;;10.13;8.80;;;22.00;81.20;;;;;;4955820;28;20552;-86
2023/09/12 04:41:52;;;;;;;9.90;8.97;;;22.10;81.60;;;;;;4942863;28;20482;-84
2023/09/12 04:44:21;;;;;;;12.87;11.20;;;22.30;81.20;;;;;;4948293;28;20832;-87
2023/09/12 04:46:49;;;;;;;11.93;10.80;;;22.40;80.00;;;;;;4952430;28;21018;-84
2023/09/12 04:49:17;;;;;;;11.97;10.87;;;22.40;79.20;;;;;;4944407;28;20872;-85
2023/09/12 04:51:47;;;;;;;12.60;11.47;;;22.20;79.30;;;;;;4953923;28;21031;-85
2023/09/12 04:54:18;;;;;;;13.63;10.60;;;22.10;79.70;;;;;;4951169;28;20462;-85
2023/09/12 04:56:47;;;;;;;15.33;13.23;;;22.00;79.60;;;;;;4946614;28;20539;-84
2023/09/12 04:59:15;;;;;;;21.77;12.90;;;21.70;80.10;;;;;;4951646;28;20473;-84
2023/09/12 05:01:43;;;;;;;15.70;11.90;;;21.60;80.60;;;;;;4963214;28;20464;-86
2023/09/12 05:04:12;;;;;;;14.10;12.80;;;21.40;81.20;;;;;;4955080;28;20982;-85
2023/09/12 05:06:41;;;;;;;13.80;12.60;;;21.30;81.10;;;;;;4952278;28;20474;-86
2023/09/12 05:09:12;;;;;;;14.00;12.60;;;21.30;81.10;;;;;;4969697;28;20957;-85
2023/09/12 05:11:40;;;;;;;13.87;12.57;;;21.20;81.90;;;;;;4926513;28;20485;-85
2023/09/12 05:14:08;;;;;;;15.77;11.27;;;21.10;82.00;;;;;;4969386;28;20459;-85
2023/09/12 05:16:37;;;;;;;17.63;12.50;;;21.10;82.60;;;;;;4943558;29;20491;-85
2023/09/12 05:19:05;;;;;;;15.13;11.63;;;21.20;81.90;;;;;;4963202;28;20474;-86
2023/09/12 05:21:34;;;;;;;13.00;10.70;;;21.20;81.80;;;;;;4951022;28;20565;-86
2023/09/12 05:24:02;;;;;;;18.57;12.40;;;21.20;82.00;;;;;;4966539;28;20524;-86
2023/09/12 05:26:32;;;;;;;14.67;13.20;;;21.20;81.70;;;;;;4970735;28;20480;-86
2023/09/12 05:29:00;;;;;;;17.57;12.30;;;21.10;81.70;;;;;;4949174;28;20505;-88
2023/09/12 05:31:29;;;;;;;13.93;12.10;;;21.20;81.30;;;;;;4969214;28;20490;-86
2023/09/12 05:33:57;;;;;;;14.77;12.70;;;21.20;81.10;;;;;;4968963;28;20463;-88
2023/09/12 05:36:25;;;;;;;12.83;11.53;;;21.20;81.20;;;;;;4956252;28;20463;-87
2023/09/12 05:38:55;;;;;;;13.30;11.87;;;21.20;81.20;;;;;;4955887;28;20465;-86
2023/09/12 05:41:27;;;;;;;13.70;12.40;;;21.10;81.40;;;;;;4955069;28;20478;-86
2023/09/12 05:43:56;;;;;;;14.47;12.87;;;21.00;81.70;;;;;;4954854;28;20843;-86
2023/09/12 05:46:25;;;;;;;13.10;11.90;;;21.00;81.60;;;;;;4946946;28;20495;-86
2023/09/12 05:48:53;;;;;;;16.13;14.40;;;20.90;81.90;;;;;;4952262;28;20459;-86
2023/09/12 05:51:21;;;;;;;14.93;12.20;;;20.90;83.60;;;;;;4972499;28;20577;-84
2023/09/12 05:53:50;;;;;;;14.80;13.30;;;20.90;84.40;;;;;;4970775;28;20824;-84
2023/09/12 05:56:20;;;;;;;14.87;13.37;;;20.90;84.50;;;;;;4955395;28;21121;-86
2023/09/12 06:02:49;;;;;;;15.60;12.63;;;21.10;83.70;;;;;;4965961;28;20438;-85
2023/09/12 06:05:18;;;;;;;16.43;14.90;;;21.10;83.60;;;;;;4968084;28;20538;-85
2023/09/12 06:07:47;;;;;;;14.23;13.07;;;21.10;83.70;;;;;;4968692;28;20482;-84
2023/09/12 06:10:15;;;;;;;14.97;13.37;;;21.20;83.60;;;;;;4970748;28;20861;-85
2023/09/12 06:12:43;;;;;;;15.43;13.30;;;21.10;83.30;;;;;;4948944;28;21173;-83
2023/09/12 06:15:12;;;;;;;11.60;10.60;;;21.20;83.50;;;;;;4966326;28;20549;-82
2023/09/12 06:17:40;;;;;;;12.33;10.93;;;21.50;85.30;;;;;;4963757;28;20538;-83
2023/09/12 06:20:11;;;;;;;11.87;10.77;;;22.10;85.00;;;;;;4968927;28;20560;-83
2023/09/12 06:22:39;;;;;;;13.07;10.37;;;22.60;83.70;;;;;;4968744;28;20473;-84
2023/09/12 06:25:08;;;;;;;10.53;9.43;;;23.10;82.30;;;;;;4965433;28;20474;-83
2023/09/12 06:27:36;;;;;;;12.10;10.97;;;23.50;80.90;;;;;;4969508;28;20975;-82
2023/09/12 06:30:05;;;;;;;10.77;9.90;;;23.80;80.00;;;;;;4970055;28;20472;-84
2023/09/12 06:32:33;;;;;;;10.17;9.27;;;24.10;79.00;;;;;;4971212;28;20495;-84
2023/09/12 06:35:01;;;;;;;11.37;9.97;;;24.40;78.40;;;;;;4969688;28;20517;-82
2023/09/12 06:37:31;;;;;;;10.50;9.60;;;24.60;77.70;;;;;;4966163;28;20463;-83
2023/09/12 06:39:59;;;;;;;9.53;8.73;;;24.80;77.40;;;;;;4969520;28;20462;-85
2023/09/12 06:42:27;;;;;;;10.90;9.77;;;25.00;77.00;;;;;;4969781;28;20489;-83
2023/09/12 06:44:56;;;;;;;10.27;9.37;;;25.20;76.60;;;;;;4951723;28;20487;-83
2023/09/12 06:47:24;;;;;;;9.20;8.40;;;25.30;76.10;;;;;;4969351;28;20509;-85
2023/09/12 06:49:52;;;;;;;9.50;8.67;;;25.50;75.90;;;;;;4969668;28;20457;-85
2023/09/12 06:52:23;;;;;;;10.33;8.90;;;25.60;75.60;;;;;;4966971;28;20460;-84
2023/09/12 06:54:53;;;;;;;10.43;9.40;;;25.70;75.20;;;;;;4965165;28;20899;-84
2023/09/12 06:57:21;;;;;;;9.47;8.67;;;25.70;74.90;;;;;;4969715;28;20463;-83
2023/09/12 06:59:49;;;;;;;10.03;9.07;;;25.90;74.70;;;;;;4953649;28;20891;-84
2023/09/12 07:02:18;;;;;;;10.57;9.50;;;25.90;74.70;;;;;;4970047;28;20471;-83
2023/09/12 07:04:46;;;;;;;9.60;8.90;;;26.00;74.50;;;;;;4968724;28;20457;-83
2023/09/12 07:07:15;;;;;;;9.60;8.70;;;26.10;74.20;;;;;;4967171;28;20482;-83
2023/09/12 07:09:43;;;;;;;9.43;8.60;;;26.10;74.20;;;;;;4950399;28;20461;-83
2023/09/12 07:12:12;;;;;;;8.33;7.73;;;26.20;74.00;;;;;;4971186;28;20482;-82
2023/09/12 07:14:41;;;;;;;9.23;8.43;;;26.20;73.80;;;;;;4970124;28;20484;-84
2023/09/12 07:17:09;;;;;;;10.20;9.20;;;26.30;73.70;;;;;;4970411;28;20445;-84
2023/09/12 07:19:37;;;;;;;9.37;8.57;;;26.40;73.50;;;;;;4969087;28;20486;-81
2023/09/12 07:22:05;;;;;;;9.53;8.83;;;26.40;73.40;;;;;;4967798;28;21405;-82
2023/09/12 07:24:34;;;;;;;9.00;8.07;;;26.50;73.30;;;;;;4967065;28;20504;-82
2023/09/12 07:27:02;;;;;;;8.97;8.17;;;26.50;73.20;;;;;;4971160;28;20501;-82
2023/09/12 07:29:32;;;;;;;10.80;8.03;;;26.60;73.20;;;;;;4971264;28;20478;-84
2023/09/12 07:32:00;;;;;;;9.33;8.43;;;26.60;73.10;;;;;;4969334;28;20489;-84
2023/09/12 07:34:28;;;;;;;8.87;8.07;;;26.70;73.00;;;;;;4950343;28;21693;-83
2023/09/12 07:36:57;;;;;;;8.73;8.00;;;26.70;72.90;;;;;;4969975;28;20459;-85
2023/09/12 07:39:25;;;;;;;8.37;7.60;;;26.70;72.80;;;;;;4970396;28;20458;-85
2023/09/12 07:41:53;;;;;;;7.83;7.23;;;26.80;72.80;;;;;;4970025;28;20475;-85
2023/09/12 07:44:22;;;;;;;8.63;7.87;;;26.80;72.60;;;;;;4969734;28;20999;-83
2023/09/12 07:46:51;;;;;;;8.00;7.30;;;26.90;72.50;;;;;;4968938;28;20487;-84
2023/09/12 07:49:20;;;;;;;8.27;7.57;;;26.90;72.50;;;;;;4969469;28;21000;-84
2023/09/12 07:51:48;;;;;;;8.57;7.97;;;26.90;72.20;;;;;;4970493;28;20448;-84
2023/09/12 07:54:17;;;;;;;8.40;7.70;;;27.00;72.20;;;;;;4968167;28;20567;-84
2023/09/12 07:56:46;;;;;;;8.70;8.00;;;27.00;72.20;;;;;;4950798;28;20462;-84
2023/09/12 07:59:14;;;;;;;8.03;7.43;;;27.00;72.10;;;;;;4968500;28;20546;-83
2023/09/12 08:01:42;;;;;;;9.90;9.10;;;27.00;72.20;;;;;;4963378;28;20513;-84
2023/09/12 08:04:14;;;;;;;8.67;8.00;;;27.00;72.20;;;;;;4968288;28;20455;-84
2023/09/12 08:06:42;;;;;;;8.53;7.73;;;27.00;72.10;;;;;;4965387;28;20823;-85
2023/09/12 08:09:25;;;;;;;8.30;7.70;;;27.10;72.10;;;;;;4969627;28;20489;-85
2023/09/12 08:11:53;;;;;;;8.00;7.40;;;27.10;72.10;;;;;;4973860;28;20476;-84
2023/09/12 08:14:21;;;;;;;8.90;7.93;;;27.10;72.10;;;;;;4971907;28;20459;-85
2023/09/12 08:16:49;;;;;;;7.73;7.23;;;27.20;71.90;;;;;;4972998;28;20473;-83
2023/09/12 08:19:19;;;;;;;8.60;7.80;;;27.20;71.80;;;;;;4973820;28;20941;-83
2023/09/12 08:21:48;;;;;;;8.30;7.70;;;27.20;71.90;;;;;;4974268;28;20519;-83
2023/09/12 08:24:16;;;;;;;7.70;7.10;;;27.20;71.90;;;;;;4973177;28;20572;-83
2023/09/12 08:26:44;;;;;;;8.40;7.80;;;27.30;71.90;;;;;;4970538;28;20451;-82
2023/09/12 08:29:12;;;;;;;7.90;7.23;;;27.30;71.70;;;;;;4972515;28;20477;-82
2023/09/12 08:31:40;;;;;;;8.73;7.90;;;27.30;71.70;;;;;;4972866;28;20479;-82
2023/09/12 08:34:09;;;;;;;8.77;8.00;;;27.40;71.60;;;;;;4973422;28;20506;-82
2023/09/12 08:36:38;;;;;;;7.97;7.37;;;27.40;71.50;;;;;;4956210;28;20832;-82
2023/09/12 08:39:08;;;;;;;7.83;7.23;;;27.40;71.50;;;;;;4953718;28;20480;-83
2023/09/12 08:41:37;;;;;;;8.30;7.60;;;27.40;71.60;;;;;;4969234;28;21009;-84
2023/09/12 08:44:06;;;;;;;8.27;7.67;;;27.40;71.60;;;;;;4950753;28;20495;-85
2023/09/12 08:46:34;;;;;;;9.90;7.50;;;27.50;71.60;;;;;;4972976;28;20822;-85
2023/09/12 08:49:05;;;;;;;8.23;7.53;;;27.50;71.40;;;;;;4957070;28;20503;-86
2023/09/12 08:51:34;;;;;;;8.33;7.60;;;27.50;71.40;;;;;;4974685;28;20468;-84
2023/09/12 08:54:05;;;;;;;7.63;7.03;;;27.50;71.50;;;;;;4953897;28;20793;-84
2023/09/12 08:56:37;;;;;;;8.53;7.83;;;27.50;71.50;;;;;;4972668;28;20459;-85
2023/09/12 08:59:06;;;;;;;8.97;7.50;;;27.60;71.60;;;;;;4972106;28;20937;-85
2023/09/12 09:01:36;;;;;;;9.47;8.77;;;27.60;71.60;;;;;;4973602;28;20477;-84
2023/09/12 09:04:05;;;;;;;8.47;7.70;;;27.60;71.60;;;;;;4971398;28;20436;-85
2023/09/12 09:06:37;;;;;;;8.47;7.70;;;27.70;71.60;;;;;;4972485;28;20463;-86
2023/09/12 09:09:08;;;;;;;8.80;7.93;;;27.70;71.60;;;;;;4969345;28;20550;-85
2023/09/12 09:11:37;;;;;;;10.60;8.80;;;27.70;71.60;;;;;;4955074;28;20832;-87
2023/09/12 09:14:05;;;;;;;10.03;8.03;;;27.70;71.70;;;;;;4968101;28;20453;-86
2023/09/12 09:16:35;;;;;;;8.07;7.47;;;27.70;71.60;;;;;;4972864;28;20517;-86
2023/09/12 09:19:06;;;;;;;8.83;8.00;;;27.70;71.80;;;;;;4970341;28;20488;-86
2023/09/12 09:21:34;;;;;;;8.50;7.70;;;27.70;71.80;;;;;;4950675;28;20476;-86
2023/09/12 09:24:04;;;;;;;7.80;7.10;;;27.80;71.80;;;;;;4972653;28;20449;-86
2023/09/12 09:26:48;;;;;;;8.60;7.90;;;27.80;71.80;;;;;;4950744;28;20469;-86
2023/09/12 09:29:18;;;;;;;8.20;7.50;;;27.80;71.80;;;;;;4966534;28;20976;-86
2023/09/12 09:31:48;;;;;;;9.20;8.30;;;27.80;71.80;;;;;;4970626;28;20611;-86
2023/09/12 09:34:17;;;;;;;8.77;7.90;;;27.80;71.80;;;;;;4968485;28;20481;-86
2023/09/12 09:36:48;;;;;;;8.33;7.50;;;27.80;71.70;;;;;;4968489;28;20543;-84
2023/09/12 09:39:19;;;;;;;7.57;6.97;;;27.80;71.80;;;;;;4969566;28;20460;-85
2023/09/12 09:41:50;;;;;;;8.67;8.00;;;27.80;71.70;;;;;;4966112;28;20570;-84
2023/09/12 09:44:19;;;;;;;8.23;7.53;;;27.90;71.80;;;;;;4970627;28;20946;-86
2023/09/12 09:46:51;;;;;;;10.10;7.93;;;27.90;71.80;;;;;;4966713;28;20469;-84
2023/09/12 09:49:21;;;;;;;9.57;8.77;;;27.90;71.80;;;;;;4971490;28;20517;-85
2023/09/12 09:51:49;;;;;;;8.80;7.33;;;27.90;71.80;;;;;;4971811;28;20574;-85
2023/09/12 09:54:18;;;;;;;9.43;8.50;;;27.90;71.70;;;;;;4953213;28;20465;-85
2023/09/12 09:56:49;;;;;;;8.20;7.40;;;27.90;71.70;;;;;;4970869;28;20471;-84
2023/09/12 09:59:19;;;;;;;8.57;7.77;;;27.90;71.80;;;;;;4969894;28;20468;-84
2023/09/12 10:01:49;;;;;;;8.00;7.40;;;28.00;71.70;;;;;;4967116;28;20927;-85
2023/09/12 10:04:18;;;;;;;9.17;8.27;;;28.00;71.70;;;;;;4952652;28;20461;-84
2023/09/12 10:06:47;;;;;;;8.07;7.17;;;28.00;71.70;;;;;;4964842;28;20492;-85
2023/09/12 10:09:17;;;;;;;8.73;7.33;;;28.00;71.60;;;;;;4952691;28;20480;-85
2023/09/12 10:11:48;;;;;;;7.40;6.90;;;28.10;71.50;;;;;;4953277;28;20842;-84
2023/09/12 10:14:20;;;;;;;8.97;8.17;;;28.10;71.50;;;;;;4949634;28;20470;-85
2023/09/12 10:16:51;;;;;;;8.30;7.70;;;28.10;71.40;;;;;;4968145;28;20461;-85
2023/09/12 10:19:22;;;;;;;7.63;6.90;;;28.10;71.40;;;;;;4968406;28;20468;-83
2023/09/12 10:21:56;;;;;;;8.73;8.03;;;28.10;71.40;;;;;;4970922;28;21187;-84
2023/09/12 10:24:25;;;;;;;8.57;7.87;;;28.20;71.30;;;;;;4968081;28;20506;-84
2023/09/12 10:26:56;;;;;;;8.30;7.60;;;28.20;71.20;;;;;;4965018;28;20474;-84
2023/09/12 10:29:25;;;;;;;9.37;8.30;;;28.20;71.20;;;;;;4951028;28;20505;-84
2023/09/12 10:31:55;;;;;;;7.63;7.03;;;28.20;71.20;;;;;;4970508;28;20496;-82
2023/09/12 10:34:25;;;;;;;7.73;7.10;;;28.20;71.30;;;;;;4968759;28;20466;-83
2023/09/12 10:36:56;;;;;;;8.60;7.80;;;28.20;71.20;;;;;;4950426;28;20859;-83
2023/09/12 10:39:27;;;;;;;6.47;5.97;;;28.20;71.20;;;;;;4970158;28;20551;-83
2023/09/12 10:41:58;;;;;;;7.63;7.03;;;28.20;71.10;;;;;;4965487;28;20466;-83
2023/09/12 10:44:28;;;;;;;7.00;6.50;;;28.30;71.20;;;;;;4966771;28;20931;-85
2023/09/12 10:46:56;;;;;;;8.43;7.60;;;28.30;71.10;;;;;;4970315;28;20451;-85
2023/09/12 10:49:25;;;;;;;7.77;7.10;;;28.30;71.00;;;;;;4969954;28;20587;-86
2023/09/12 10:51:55;;;;;;;7.77;7.07;;;28.30;70.90;;;;;;4953963;28;20469;-85
2023/09/12 10:54:25;;;;;;;6.70;6.10;;;28.40;70.90;;;;;;4971259;28;20456;-83
2023/09/12 10:57:06;;;;;;;8.50;7.80;;;28.50;70.90;;;;;;4968998;28;20513;-83
2023/09/12 10:59:36;;;;;;;8.20;7.60;;;28.60;70.70;;;;;;4965263;28;20567;-84
2023/09/12 11:02:28;;;;;;;7.43;6.93;;;28.70;70.40;;;;;;4966925;28;20469;-86
2023/09/12 11:04:57;;;;;;;7.40;6.70;;;28.90;69.50;;;;;;4967511;28;20465;-85
2023/09/12 11:07:33;;;;;;;6.37;5.70;;;29.10;69.00;;;;;;4948046;28;20559;-85
2023/09/12 11:10:21;;;;;;;6.87;6.37;;;29.30;68.60;;;;;;4965047;28;20474;-85
2023/09/12 11:12:51;;;;;;;7.63;7.03;;;29.50;67.80;;;;;;4966348;28;20537;-84
2023/09/12 11:15:22;;;;;;;7.47;6.97;;;29.60;67.70;;;;;;4953023;28;20809;-86
2023/09/12 11:18:00;;;;;;;8.83;8.13;;;29.60;67.30;;;;;;4971349;28;20541;-85
2023/09/12 11:20:52;;;;;;;7.40;6.80;;;29.70;67.30;;;;;;4953115;28;20469;-85
2023/09/12 11:23:22;;;;;;;7.30;6.70;;;29.80;67.10;;;;;;4966137;28;20458;-85
2023/09/12 11:26:03;;;;;;;8.33;7.73;;;29.90;66.90;;;;;;4963558;28;20462;-85
2023/09/12 11:28:33;;;;;;;7.27;6.80;;;30.00;66.60;;;;;;4970239;28;20974;-85
2023/09/12 11:31:02;;;;;;;7.80;7.20;;;30.00;66.50;;;;;;4947861;28;20474;-86
2023/09/12 11:33:33;;;;;;;9.00;8.40;;;30.10;66.40;;;;;;4967982;28;20454;-86
2023/09/12 11:36:05;;;;;;;8.20;7.60;;;30.10;66.20;;;;;;4966044;28;20489;-85
2023/09/12 11:38:33;;;;;;;7.50;7.00;;;30.10;66.10;;;;;;4960625;28;20455;-84
2023/09/12 11:41:02;;;;;;;9.00;8.30;;;30.20;66.20;;;;;;4970009;28;20463;-85
2023/09/12 11:43:30;;;;;;;7.50;6.90;;;30.20;66.10;;;;;;4962833;28;20463;-85
2023/09/12 11:45:58;;;;;;;7.90;7.30;;;30.20;66.00;;;;;;4969877;28;20470;-84
2023/09/12 11:48:31;;;;;;;9.00;8.30;;;30.10;66.00;;;;;;4951666;28;20549;-85
2023/09/12 11:51:01;;;;;;;8.37;7.77;;;30.10;66.10;;;;;;4973815;28;20487;-84
2023/09/12 11:53:32;;;;;;;7.63;7.03;;;30.10;66.20;;;;;;4971774;28;20453;-85
2023/09/12 11:56:01;;;;;;;9.60;8.80;;;30.10;66.30;;;;;;4971546;28;20546;-86
2023/09/12 11:58:31;;;;;;;8.63;8.00;;;30.10;66.20;;;;;;4963343;28;20545;-84
2023/09/12 12:01:00;;;;;;;8.77;8.17;;;30.10;66.10;;;;;;4970163;28;20505;-85
2023/09/12 12:03:29;;;;;;;8.63;7.73;;;30.10;66.10;;;;;;4968971;28;20952;-84
2023/09/12 12:05:59;;;;;;;7.97;7.47;;;30.20;66.00;;;;;;4970928;28;20463;-84
2023/09/12 12:08:28;;;;;;;7.47;6.93;;;30.20;65.90;;;;;;4973255;28;20508;-86
2023/09/12 12:11:00;;;;;;;9.27;8.47;;;30.30;65.80;;;;;;4966387;28;20566;-84
2023/09/12 12:13:29;;;;;;;7.93;7.43;;;30.30;65.70;;;;;;4970711;28;20464;-85
2023/09/12 12:15:58;;;;;;;7.77;7.17;;;30.20;65.70;;;;;;4969285;28;20549;-85
2023/09/12 12:18:27;;;;;;;9.10;8.40;;;30.30;65.70;;;;;;4950644;28;20957;-85
2023/09/12 12:20:55;;;;;;;8.00;7.40;;;30.30;65.40;;;;;;4974213;28;20462;-84
2023/09/12 12:23:25;;;;;;;9.93;9.23;;;30.30;65.10;;;;;;4964896;28;20486;-86
2023/09/12 12:25:53;;;;;;;8.70;8.03;;;30.40;65.00;;;;;;4948639;28;20469;-85
2023/09/12 12:28:22;;;;;;;9.37;8.73;;;30.40;65.10;;;;;;4950703;28;20471;-85
2023/09/12 12:30:55;;;;;;;8.77;8.10;;;30.50;65.00;;;;;;4957252;28;20533;-84
2023/09/12 12:33:23;;;;;;;9.43;8.63;;;30.50;65.00;;;;;;4971842;28;20475;-85
2023/09/12 12:36:11;;;;;;;8.60;8.00;;;30.50;64.80;;;;;;4960177;28;20458;-84
2023/09/12 12:38:43;;;;;;;9.63;8.93;;;30.60;64.60;;;;;;4973478;28;20454;-83
2023/09/12 12:41:25;;;;;;;8.47;7.87;;;30.70;64.10;;;;;;4966377;28;20446;-86
2023/09/12 12:44:00;;;;;;;9.33;8.57;;;30.70;64.10;;;;;;4964917;28;20458;-86
2023/09/12 12:46:31;;;;;;;8.87;8.27;;;30.70;64.20;;;;;;4968130;28;20987;-84
2023/09/12 12:48:59;;;;;;;9.37;8.67;;;30.70;64.20;;;;;;4963064;28;20468;-87
2023/09/12 12:51:29;;;;;;;8.93;8.23;;;30.70;64.20;;;;;;4966205;28;20500;-86
2023/09/12 12:54:06;;;;;;;9.70;8.90;;;30.70;64.10;;;;;;4963314;28;20494;-84
2023/09/12 12:56:35;;;;;;;10.07;9.07;;;30.70;64.10;;;;;;4962396;28;20462;-84